createdAt,value
2023-05-01T00:01:08.168Z,101902.78
2023-05-01T00:03:35.130Z,101848.81
2023-05-01T00:06:04.882Z,101892.69
2023-05-01T00:08:32.386Z,101876.13
2023-05-01T00:11:03.577Z,101869.56
2023-05-01T00:13:30.462Z,101852.44
2023-05-01T00:15:57.221Z,101858.28
2023-05-01T00:18:23.666Z,101871.97
2023-05-01T00:20:50.120Z,101874.88
2023-05-01T00:23:16.512Z,101883.41
2023-05-01T00:25:42.918Z,101875.56
2023-05-01T00:28:09.407Z,101855.56
2023-05-01T00:30:35.839Z,101861.44
2023-05-01T00:33:02.359Z,101847.41
2023-05-01T00:35:30.091Z,101868.91
2023-05-01T00:37:56.694Z,101851.97
2023-05-01T00:40:23.100Z,101850.19
2023-05-01T00:42:49.568Z,101854.63
2023-05-01T00:45:16.088Z,101842.50
2023-05-01T00:47:42.723Z,101837.72
2023-05-01T00:50:09.769Z,101831.97
2023-05-01T00:52:36.211Z,101820.78
2023-05-01T00:55:05.298Z,101833.28
2023-05-01T00:57:32.579Z,101820.56
2023-05-01T00:59:59.185Z,101823.44
2023-05-01T01:02:27.162Z,101816.50
2023-05-01T01:04:54.056Z,101796.44
2023-05-01T01:07:36.256Z,101821.06
2023-05-01T01:10:18.421Z,101801.16
2023-05-01T01:12:56.408Z,101804.16
2023-05-01T01:15:34.937Z,101808.69
2023-05-01T01:18:18.094Z,101809.56
2023-05-01T01:21:14.174Z,101768.28
2023-05-01T01:23:59.490Z,101807.84
2023-05-01T01:27:02.421Z,101793.34
2023-05-01T01:29:37.961Z,101804.03
2023-05-01T01:32:31.679Z,101787.72
2023-05-01T01:35:18.442Z,101775.50
2023-05-01T01:37:59.034Z,101711.94
2023-05-01T01:40:34.644Z,101783.66
2023-05-01T01:43:10.512Z,101714.44
2023-05-01T01:45:43.639Z,101758.09
2023-05-01T01:48:14.715Z,101755.59
2023-05-01T01:50:43.702Z,101756.44
2023-05-01T01:53:13.267Z,101745.75
2023-05-01T01:55:43.421Z,101748.84
2023-05-01T01:58:11.899Z,101729.66
2023-05-01T02:00:41.904Z,101748.97
2023-05-01T02:03:10.462Z,101753.41
2023-05-01T02:05:40.426Z,101695.00
2023-05-01T02:08:08.782Z,101738.53
2023-05-01T02:10:37.073Z,101685.06
2023-05-01T02:13:04.272Z,101717.56
2023-05-01T02:15:32.701Z,101719.34
2023-05-01T02:18:03.632Z,101732.53
2023-05-01T02:20:30.508Z,101730.28
2023-05-01T02:22:58.684Z,101705.69
2023-05-01T02:25:29.100Z,101721.53
2023-05-01T02:28:00.121Z,101713.22
2023-05-01T02:30:26.591Z,101708.69
2023-05-01T02:32:53.068Z,101711.06
2023-05-01T02:35:19.548Z,101693.13
2023-05-01T02:37:46.328Z,101680.38
2023-05-01T02:40:15.116Z,101696.22
2023-05-01T02:42:44.934Z,101672.47
2023-05-01T02:45:19.163Z,101657.41
2023-05-01T02:47:50.807Z,101683.41
2023-05-01T02:50:18.056Z,101658.94
2023-05-01T02:52:45.346Z,101630.56
2023-05-01T02:55:11.913Z,101664.09
2023-05-01T02:57:38.829Z,101649.72
2023-05-01T03:00:09.327Z,101637.03
2023-05-01T03:02:35.786Z,101635.97
2023-05-01T03:05:02.240Z,101640.38
2023-05-01T03:07:34.979Z,101647.06
2023-05-01T03:10:05.608Z,101640.88
2023-05-01T03:12:32.038Z,101639.16
2023-05-01T03:14:58.517Z,101655.09
2023-05-01T03:17:25.025Z,101622.06
2023-05-01T03:19:51.619Z,101636.44
2023-05-01T03:22:18.359Z,101652.22
2023-05-01T03:24:44.903Z,101639.56
2023-05-01T03:27:11.662Z,101626.97
2023-05-01T03:29:38.215Z,101632.81
2023-05-01T03:32:05.609Z,101642.75
2023-05-01T03:34:32.297Z,101633.66
2023-05-01T03:36:58.705Z,101632.25
2023-05-01T03:39:25.286Z,101624.56
2023-05-01T03:41:51.685Z,101637.16
2023-05-01T03:44:18.097Z,101616.41
2023-05-01T03:46:44.680Z,101627.34
2023-05-01T03:49:11.178Z,101631.53
2023-05-01T03:51:37.674Z,101614.13
2023-05-01T03:54:04.072Z,101631.03
2023-05-01T03:56:35.506Z,101619.19
2023-05-01T03:59:02.406Z,101600.84
2023-05-01T04:01:28.775Z,101626.13
2023-05-01T04:03:55.496Z,101602.53
2023-05-01T04:06:22.896Z,101617.13
2023-05-01T04:08:49.332Z,101608.28
2023-05-01T04:11:15.749Z,101598.91
2023-05-01T04:13:42.229Z,101608.53
2023-05-01T04:16:08.701Z,101605.75
2023-05-01T04:18:35.499Z,101616.75
2023-05-01T04:21:02.570Z,101607.13
2023-05-01T04:23:29.013Z,101599.63
2023-05-01T04:25:55.401Z,101611.47
2023-05-01T04:28:21.879Z,101595.69
2023-05-01T04:30:48.366Z,101591.19
2023-05-01T04:33:14.768Z,101563.78
2023-05-01T04:35:41.637Z,101593.47
2023-05-01T04:38:10.445Z,101604.94
2023-05-01T04:40:36.904Z,101581.78
2023-05-01T04:43:03.403Z,101605.50
2023-05-01T04:45:29.838Z,101607.75
2023-05-01T04:47:56.281Z,101585.44
2023-05-01T04:50:22.837Z,101591.16
2023-05-01T04:52:49.664Z,101590.47
2023-05-01T04:55:16.520Z,101596.56
2023-05-01T04:57:42.932Z,101585.97
2023-05-01T05:00:09.815Z,101606.63
2023-05-01T05:02:36.426Z,101595.75
2023-05-01T05:05:03.008Z,101587.09
2023-05-01T05:07:29.414Z,101587.78
2023-05-01T05:09:56.167Z,101603.25
2023-05-01T05:12:22.777Z,101596.88
2023-05-01T05:14:49.249Z,101593.63
2023-05-01T05:17:15.664Z,101603.13
2023-05-01T05:19:42.061Z,101595.06
2023-05-01T05:22:08.564Z,101595.59
2023-05-01T05:24:34.954Z,101600.47
2023-05-01T05:27:01.353Z,101586.13
2023-05-01T05:29:27.783Z,101606.19
2023-05-01T05:31:54.242Z,101592.25
2023-05-01T05:34:20.808Z,101588.59
2023-05-01T05:36:47.233Z,101583.31
2023-05-01T05:39:13.863Z,101577.31
2023-05-01T05:41:40.349Z,101593.78
2023-05-01T05:44:06.996Z,101575.09
2023-05-01T05:46:33.591Z,101573.13
2023-05-01T05:49:00.281Z,101582.34
2023-05-01T05:51:26.681Z,101586.97
2023-05-01T05:53:53.063Z,101576.38
2023-05-01T05:56:19.457Z,101578.13
2023-05-01T05:58:45.873Z,101574.38
2023-05-01T06:01:12.347Z,101570.31
2023-05-01T06:03:38.910Z,101576.22
2023-05-01T06:06:06.112Z,101575.06
2023-05-01T06:08:32.746Z,101578.53
2023-05-01T06:10:59.302Z,101554.09
2023-05-01T06:13:25.807Z,101580.81
2023-05-01T06:15:52.621Z,101563.16
2023-05-01T06:18:19.099Z,101585.59
2023-05-01T06:20:47.158Z,101579.53
2023-05-01T06:23:13.768Z,101580.63
2023-05-01T06:25:40.595Z,101562.78
2023-05-01T06:28:07.195Z,101585.91
2023-05-01T06:30:33.604Z,101580.31
2023-05-01T06:33:00.208Z,101593.69
2023-05-01T06:35:28.114Z,101590.66
2023-05-01T06:37:56.021Z,101568.97
2023-05-01T06:40:22.529Z,101549.72
2023-05-01T06:42:49.127Z,101581.28
2023-05-01T06:45:15.727Z,101576.97
2023-05-01T06:47:42.333Z,101576.25
2023-05-01T06:50:09.601Z,101560.53
2023-05-01T06:52:36.019Z,101584.09
2023-05-01T06:55:02.509Z,101552.75
2023-05-01T06:57:28.937Z,101534.44
2023-05-01T06:59:55.654Z,101575.78
2023-05-01T07:02:22.388Z,101525.03
2023-05-01T07:04:48.860Z,101554.34
2023-05-01T07:07:15.478Z,101574.19
2023-05-01T07:09:41.879Z,101533.00
2023-05-01T07:12:08.750Z,101573.38
2023-05-01T07:14:35.870Z,101554.03
2023-05-01T07:17:02.699Z,101544.31
2023-05-01T07:19:29.234Z,101545.72
2023-05-01T07:21:55.756Z,101538.19
2023-05-01T07:24:22.469Z,101537.94
2023-05-01T07:26:48.959Z,101547.00
2023-05-01T07:29:16.454Z,101559.16
2023-05-01T07:31:43.581Z,101555.16
2023-05-01T07:34:10.224Z,101544.31
2023-05-01T07:36:36.806Z,101560.06
2023-05-01T07:39:04.106Z,101571.28
2023-05-01T07:41:31.552Z,101566.56
2023-05-01T07:44:00.869Z,101560.31
2023-05-01T07:46:27.533Z,101562.81
2023-05-01T07:48:54.483Z,101566.03
2023-05-01T07:51:21.069Z,101560.06
2023-05-01T07:53:47.963Z,101561.19
2023-05-01T07:56:14.371Z,101545.31
2023-05-01T07:58:44.001Z,101533.03
2023-05-01T08:01:10.648Z,101549.22
2023-05-01T08:03:37.366Z,101549.22
2023-05-01T08:06:04.171Z,101548.91
2023-05-01T08:08:30.740Z,101555.44
2023-05-01T08:10:57.141Z,101558.78
2023-05-01T08:13:23.557Z,101557.53
2023-05-01T08:15:50.141Z,101566.19
2023-05-01T08:18:20.498Z,101560.44
2023-05-01T08:20:50.751Z,101554.19
2023-05-01T08:23:17.693Z,101563.06
2023-05-01T08:25:46.889Z,101562.78
2023-05-01T08:28:14.941Z,101567.81
2023-05-01T08:30:41.504Z,101562.47
2023-05-01T08:33:08.264Z,101564.69
2023-05-01T08:35:34.775Z,101552.41
2023-05-01T08:38:01.724Z,101571.59
2023-05-01T08:40:33.507Z,101504.47
2023-05-01T08:43:01.712Z,101551.78
2023-05-01T08:45:32.446Z,101555.50
2023-05-01T08:48:01.682Z,101557.72
2023-05-01T08:50:28.774Z,101564.50
2023-05-01T08:52:58.540Z,101559.34
2023-05-01T08:55:26.741Z,101562.53
2023-05-01T08:57:54.206Z,101565.28
2023-05-01T09:00:21.457Z,101570.38
2023-05-01T09:02:49.833Z,101570.09
2023-05-01T09:05:17.730Z,101555.47
2023-05-01T09:07:46.036Z,101574.91
2023-05-01T09:10:14.198Z,101567.09
2023-05-01T09:12:41.956Z,101572.59
2023-05-01T09:15:09.779Z,101521.75
2023-05-01T09:17:36.986Z,101567.31
2023-05-01T09:20:06.343Z,101564.81
2023-05-01T09:22:33.721Z,101562.56
2023-05-01T09:25:00.724Z,101550.25
2023-05-01T09:27:28.055Z,101560.09
2023-05-01T09:29:54.754Z,101553.06
2023-05-01T09:32:30.567Z,101563.97
2023-05-01T09:35:11.464Z,101566.63
2023-05-01T09:37:37.963Z,101554.59
2023-05-01T09:40:06.504Z,101555.34
2023-05-01T09:42:34.632Z,101562.72
2023-05-01T09:45:02.003Z,101572.09
2023-05-01T09:47:31.884Z,101570.09
2023-05-01T09:50:00.247Z,101550.09
2023-05-01T09:52:28.123Z,101572.53
2023-05-01T09:55:13.825Z,101575.78
2023-05-01T09:57:40.606Z,101572.47
2023-05-01T10:00:08.741Z,101563.34
2023-05-01T10:02:35.371Z,101565.19
2023-05-01T10:05:02.041Z,101569.88
2023-05-01T10:07:29.669Z,101571.06
2023-05-01T10:09:59.393Z,101550.09
2023-05-01T10:12:29.506Z,101514.13
2023-05-01T10:14:57.779Z,101567.31
2023-05-01T10:17:24.263Z,101570.84
2023-05-01T10:19:51.498Z,101575.72
2023-05-01T10:22:18.279Z,101572.44
2023-05-01T10:24:46.122Z,101570.97
2023-05-01T10:27:13.421Z,101568.16
2023-05-01T10:29:41.909Z,101578.97
2023-05-01T10:32:09.427Z,101575.97
2023-05-01T10:34:40.266Z,101585.97
2023-05-01T10:37:13.959Z,101589.97
2023-05-01T10:39:40.662Z,101591.66
2023-05-01T10:42:14.774Z,101602.63
2023-05-01T10:44:42.728Z,101556.00
2023-05-01T10:47:24.391Z,101596.97
2023-05-01T10:50:09.790Z,101592.59
2023-05-01T10:53:14.290Z,101598.97
2023-05-01T10:55:45.939Z,101579.66
2023-05-01T10:58:14.018Z,101594.69
2023-05-01T11:00:41.033Z,101599.31
2023-05-01T11:03:22.728Z,101604.31
2023-05-01T11:06:03.290Z,101608.44
2023-05-01T11:08:34.946Z,101591.06
2023-05-01T11:11:19.477Z,101604.75
2023-05-01T11:13:59.824Z,101601.00
2023-05-01T11:16:41.943Z,101605.34
2023-05-01T11:19:23.533Z,101623.13
2023-05-01T11:21:50.769Z,101612.44
2023-05-01T11:24:20.188Z,101607.47
2023-05-01T11:26:47.800Z,101612.56
2023-05-01T11:29:14.189Z,101616.72
2023-05-01T11:31:41.566Z,101619.13
2023-05-01T11:34:08.390Z,101607.25
2023-05-01T11:36:51.260Z,101605.66
2023-05-01T11:39:18.420Z,101618.50
2023-05-01T11:41:45.974Z,101606.00
2023-05-01T11:44:16.221Z,101608.41
2023-05-01T11:46:42.720Z,101626.88
2023-05-01T11:49:09.546Z,101615.19
2023-05-01T11:51:36.016Z,101623.69
2023-05-01T11:54:04.430Z,101628.69
2023-05-01T11:56:31.885Z,101589.72
2023-05-01T11:59:16.930Z,101618.63
2023-05-01T12:01:45.553Z,101628.44
2023-05-01T12:04:13.816Z,101637.06
2023-05-01T12:06:46.039Z,101635.78
2023-05-01T12:09:17.462Z,101629.69
2023-05-01T12:11:44.140Z,101632.28
2023-05-01T12:14:11.202Z,101633.81
2023-05-01T12:16:40.298Z,101643.28
2023-05-01T12:19:07.517Z,101632.41
2023-05-01T12:21:35.173Z,101610.56
2023-05-01T12:24:16.924Z,101616.03
2023-05-01T12:26:45.356Z,101625.50
2023-05-01T12:29:12.049Z,101615.44
2023-05-01T12:31:49.942Z,101620.31
2023-05-01T12:34:16.636Z,101623.38
2023-05-01T12:36:53.299Z,101622.13
2023-05-01T12:39:20.160Z,101625.16
2023-05-01T12:41:48.688Z,101606.47
2023-05-01T12:44:25.876Z,101629.16
2023-05-01T12:46:55.851Z,101627.38
2023-05-01T12:49:23.508Z,101605.06
2023-05-01T12:51:52.099Z,101626.63
2023-05-01T12:54:23.010Z,101607.47
2023-05-01T12:56:53.114Z,101620.38
2023-05-01T12:59:24.756Z,101616.22
2023-05-01T13:02:03.347Z,101611.50
2023-05-01T13:04:30.073Z,101585.78
2023-05-01T13:06:57.700Z,101607.22
2023-05-01T13:09:27.284Z,101589.28
2023-05-01T13:12:10.594Z,101610.44
2023-05-01T13:14:41.874Z,101612.66
2023-05-01T13:17:09.828Z,101618.34
2023-05-01T13:19:37.247Z,101607.94
2023-05-01T13:22:04.639Z,101600.97
2023-05-01T13:24:39.809Z,101606.38
2023-05-01T13:27:11.409Z,101583.69
2023-05-01T13:29:45.663Z,101578.88
2023-05-01T13:32:12.226Z,101596.94
2023-05-01T13:34:42.645Z,101589.16
2023-05-01T13:37:13.792Z,101592.66
2023-05-01T13:39:42.634Z,101584.28
2023-05-01T13:42:11.842Z,101541.75
2023-05-01T13:44:49.934Z,101564.59
2023-05-01T13:47:18.242Z,101596.75
2023-05-01T13:49:45.574Z,101582.38
2023-05-01T13:52:16.000Z,101548.22
2023-05-01T13:54:42.732Z,101598.06
2023-05-01T13:57:09.897Z,101590.59
2023-05-01T13:59:39.504Z,101568.69
2023-05-01T14:02:29.639Z,101593.00
2023-05-01T14:04:58.343Z,101583.88
2023-05-01T14:07:26.821Z,101571.16
2023-05-01T14:09:56.047Z,101583.69
2023-05-01T14:12:26.737Z,101580.66
2023-05-01T14:14:53.473Z,101590.19
2023-05-01T14:17:25.498Z,101580.69
2023-05-01T14:19:52.686Z,101586.94
2023-05-01T14:22:19.102Z,101604.31
2023-05-01T14:24:46.005Z,101584.44
2023-05-01T14:27:14.616Z,101592.34
2023-05-01T14:29:43.810Z,101583.38
2023-05-01T14:32:10.975Z,101589.13
2023-05-01T14:34:41.587Z,101580.13
2023-05-01T14:37:09.780Z,101585.13
2023-05-01T14:39:36.178Z,101588.16
2023-05-01T14:42:04.366Z,101584.59
2023-05-01T14:44:30.838Z,101588.50
2023-05-01T14:46:58.738Z,101582.63
2023-05-01T14:49:25.738Z,101590.44
2023-05-01T14:51:53.771Z,101592.31
2023-05-01T14:54:21.125Z,101600.41
2023-05-01T14:56:48.543Z,101600.03
2023-05-01T14:59:15.994Z,101603.31
2023-05-01T15:01:43.943Z,101598.22
2023-05-01T15:04:11.847Z,101590.94
2023-05-01T15:06:38.560Z,101590.81
2023-05-01T15:09:05.383Z,101586.84
2023-05-01T15:11:31.980Z,101607.56
2023-05-01T15:13:58.400Z,101592.59
2023-05-01T15:16:24.858Z,101594.28
2023-05-01T15:18:51.694Z,101603.91
2023-05-01T15:21:18.379Z,101600.94
2023-05-01T15:23:46.108Z,101597.97
2023-05-01T15:26:12.519Z,101611.47
2023-05-01T15:28:39.050Z,101602.66
2023-05-01T15:31:05.944Z,101592.78
2023-05-01T15:33:32.420Z,101608.47
2023-05-01T15:35:58.849Z,101602.44
2023-05-01T15:38:26.085Z,101611.78
2023-05-01T15:40:52.549Z,101616.47
2023-05-01T15:43:19.120Z,101614.97
2023-05-01T15:45:45.799Z,101624.47
2023-05-01T15:48:12.415Z,101627.97
2023-05-01T15:50:38.986Z,101622.63
2023-05-01T15:53:05.504Z,101630.81
2023-05-01T15:55:32.138Z,101636.97
2023-05-01T15:57:58.658Z,101631.78
2023-05-01T16:00:25.510Z,101640.28
2023-05-01T16:02:52.038Z,101651.41
2023-05-01T16:05:21.452Z,101641.53
2023-05-01T16:07:53.544Z,101611.13
2023-05-01T16:10:20.140Z,101645.84
2023-05-01T16:12:46.638Z,101658.69
2023-05-01T16:15:14.604Z,101653.47
2023-05-01T16:17:45.118Z,101640.13
2023-05-01T16:20:13.088Z,101667.63
2023-05-01T16:22:41.436Z,101679.06
2023-05-01T16:25:09.788Z,101657.22
2023-05-01T16:27:41.143Z,101652.88
2023-05-01T16:30:09.021Z,101662.22
2023-05-01T16:32:35.797Z,101667.03
2023-05-01T16:35:03.642Z,101662.88
2023-05-01T16:37:30.125Z,101680.06
2023-05-01T16:39:59.171Z,101653.06
2023-05-01T16:42:25.752Z,101686.53
2023-05-01T16:44:52.484Z,101686.03
2023-05-01T16:47:19.074Z,101664.38
2023-05-01T16:49:46.682Z,101675.81
2023-05-01T16:52:15.544Z,101653.63
2023-05-01T16:54:42.043Z,101668.31
2023-05-01T16:57:08.498Z,101680.84
2023-05-01T16:59:35.107Z,101662.88
2023-05-01T17:02:01.585Z,101675.59
2023-05-01T17:04:28.404Z,101672.63
2023-05-01T17:06:56.118Z,101669.66
2023-05-01T17:09:22.789Z,101674.47
2023-05-01T17:11:49.277Z,101678.47
2023-05-01T17:14:15.673Z,101677.91
2023-05-01T17:16:42.155Z,101678.53
2023-05-01T17:19:09.875Z,101698.84
2023-05-01T17:21:36.513Z,101701.34
2023-05-01T17:24:03.144Z,101696.38
2023-05-01T17:26:29.564Z,101695.38
2023-05-01T17:28:56.062Z,101696.38
2023-05-01T17:31:22.819Z,101697.31
2023-05-01T17:33:49.434Z,101709.97
2023-05-01T17:36:15.929Z,101707.03
2023-05-01T17:38:42.341Z,101709.63
2023-05-01T17:41:08.756Z,101711.81
2023-05-01T17:43:35.160Z,101713.16
2023-05-01T17:46:01.695Z,101722.28
2023-05-01T17:48:28.185Z,101719.00
2023-05-01T17:50:55.732Z,101726.81
2023-05-01T17:53:23.288Z,101717.69
2023-05-01T17:55:49.857Z,101731.31
2023-05-01T17:58:16.396Z,101734.44
2023-05-01T18:00:42.861Z,101717.41
2023-05-01T18:03:09.468Z,101745.50
2023-05-01T18:05:36.002Z,101691.88
2023-05-01T18:08:02.400Z,101711.25
2023-05-01T18:10:31.151Z,101737.97
2023-05-01T18:12:58.234Z,101729.25
2023-05-01T18:15:24.962Z,101726.19
2023-05-01T18:17:51.936Z,101755.19
2023-05-01T18:20:18.518Z,101744.94
2023-05-01T18:22:45.286Z,101748.28
2023-05-01T18:25:12.512Z,101755.41
2023-05-01T18:27:41.250Z,101754.94
2023-05-01T18:30:08.354Z,101753.03
2023-05-01T18:32:46.734Z,101760.16
2023-05-01T18:35:15.042Z,101750.31
2023-05-01T18:37:42.487Z,101762.34
2023-05-01T18:40:09.824Z,101777.47
2023-05-01T18:42:36.284Z,101774.25
2023-05-01T18:45:03.987Z,101787.53
2023-05-01T18:47:32.308Z,101778.63
2023-05-01T18:49:59.573Z,101781.41
2023-05-01T18:52:26.452Z,101772.25
2023-05-01T18:54:52.837Z,101792.38
2023-05-01T18:57:19.218Z,101805.91
2023-05-01T18:59:45.875Z,101808.84
2023-05-01T19:02:12.336Z,101806.06
2023-05-01T19:04:55.854Z,101804.00
2023-05-01T19:07:23.546Z,101788.53
2023-05-01T19:09:49.975Z,101804.44
2023-05-01T19:12:16.553Z,101815.03
2023-05-01T19:14:43.128Z,101817.94
2023-05-01T19:17:09.821Z,101817.53
2023-05-01T19:19:36.231Z,101825.47
2023-05-01T19:22:02.629Z,101823.94
2023-05-01T19:24:29.054Z,101806.47
2023-05-01T19:26:55.474Z,101813.59
2023-05-01T19:29:21.906Z,101828.78
2023-05-01T19:31:48.693Z,101806.94
2023-05-01T19:34:15.168Z,101828.44
2023-05-01T19:36:41.563Z,101822.03
2023-05-01T19:39:07.972Z,101844.59
2023-05-01T19:41:34.901Z,101843.72
2023-05-01T19:44:01.411Z,101837.13
2023-05-01T19:46:27.949Z,101839.72
2023-05-01T19:48:54.380Z,101853.41
2023-05-01T19:51:20.777Z,101858.44
2023-05-01T19:53:47.203Z,101871.84
2023-05-01T19:56:13.631Z,101875.28
2023-05-01T19:58:40.044Z,101862.34
2023-05-01T20:01:09.179Z,101882.97
2023-05-01T20:03:35.675Z,101877.84
2023-05-01T20:06:02.293Z,101897.06
2023-05-01T20:08:28.822Z,101880.75
2023-05-01T20:10:56.750Z,101893.84
2023-05-01T20:13:23.390Z,101895.38
2023-05-01T20:15:51.150Z,101889.38
2023-05-01T20:18:18.031Z,101905.00
2023-05-01T20:20:44.464Z,101913.81
2023-05-01T20:23:15.774Z,101912.31
2023-05-01T20:25:42.650Z,101914.47
2023-05-01T20:28:11.049Z,101868.75
2023-05-01T20:30:39.933Z,101921.88
2023-05-01T20:33:07.772Z,101926.94
2023-05-01T20:35:34.686Z,101930.41
2023-05-01T20:38:01.974Z,101933.56
2023-05-01T20:40:29.164Z,101935.13
2023-05-01T20:42:56.222Z,101917.75
2023-05-01T20:45:22.778Z,101935.13
2023-05-01T20:47:49.219Z,101917.91
2023-05-01T20:50:17.540Z,101930.53
2023-05-01T20:52:44.909Z,101942.66
2023-05-01T20:55:11.832Z,101921.19
2023-05-01T20:57:40.110Z,101923.50
2023-05-01T21:00:07.971Z,101922.78
2023-05-01T21:02:39.853Z,101926.16
2023-05-01T21:05:10.141Z,101935.06
2023-05-01T21:07:40.618Z,101934.00
2023-05-01T21:10:09.693Z,101922.66
2023-05-01T21:12:36.868Z,101939.19
2023-05-01T21:15:04.330Z,101939.88
2023-05-01T21:17:35.975Z,101906.25
2023-05-01T21:20:06.107Z,101918.56
2023-05-01T21:22:32.499Z,101936.66
2023-05-01T21:25:00.202Z,101931.75
2023-05-01T21:27:27.418Z,101921.44
2023-05-01T21:29:59.694Z,101876.28
2023-05-01T21:32:32.644Z,101901.69
2023-05-01T21:35:03.663Z,101945.88
2023-05-01T21:37:30.294Z,101944.41
2023-05-01T21:40:01.146Z,101935.97
2023-05-01T21:42:34.500Z,101927.00
2023-05-01T21:45:06.847Z,101896.75
2023-05-01T21:47:42.298Z,101926.53
2023-05-01T21:50:12.074Z,101957.75
2023-05-01T21:52:39.218Z,101949.38
2023-05-01T21:55:10.297Z,101947.69
2023-05-01T21:57:38.292Z,101943.66
2023-05-01T22:00:09.895Z,101960.41
2023-05-01T22:02:40.927Z,101956.44
2023-05-01T22:05:08.068Z,101925.31
2023-05-01T22:07:37.707Z,101953.25
2023-05-01T22:10:04.374Z,101967.88
2023-05-01T22:12:30.799Z,101926.31
2023-05-01T22:14:57.339Z,101951.38
2023-05-01T22:17:26.717Z,101952.75
2023-05-01T22:19:53.607Z,101956.94
2023-05-01T22:22:20.024Z,101962.38
2023-05-01T22:24:46.449Z,101978.69
2023-05-01T22:27:13.027Z,101983.28
2023-05-01T22:29:39.432Z,101975.47
2023-05-01T22:32:05.926Z,101973.09
2023-05-01T22:34:32.361Z,101981.38
2023-05-01T22:36:58.782Z,101957.50
2023-05-01T22:39:25.175Z,101987.03
2023-05-01T22:41:51.622Z,101994.03
2023-05-01T22:44:18.068Z,102005.41
2023-05-01T22:46:44.746Z,102001.34
2023-05-01T22:49:11.601Z,102002.31
2023-05-01T22:51:38.144Z,102012.66
2023-05-01T22:54:04.526Z,102004.47
2023-05-01T22:56:30.943Z,102025.97
2023-05-01T22:58:57.366Z,102019.38
2023-05-01T23:01:23.961Z,102031.72
2023-05-01T23:03:50.974Z,102043.00
2023-05-01T23:06:18.905Z,102032.69
2023-05-01T23:08:45.401Z,102037.47
2023-05-01T23:11:15.697Z,102047.09
2023-05-01T23:13:47.135Z,102048.88
2023-05-01T23:16:17.670Z,102043.81
2023-05-01T23:18:45.421Z,102056.94
2023-05-01T23:21:13.342Z,102057.78
2023-05-01T23:23:44.853Z,102058.09
2023-05-01T23:26:23.279Z,101992.03
2023-05-01T23:28:49.713Z,102054.59
2023-05-01T23:31:26.296Z,102031.19
2023-05-01T23:33:54.725Z,102071.44
2023-05-01T23:36:21.819Z,102065.09
2023-05-01T23:38:48.323Z,102077.59
2023-05-01T23:41:15.090Z,102080.47
2023-05-01T23:43:42.418Z,102080.94
2023-05-01T23:46:09.156Z,102064.94
2023-05-01T23:48:36.195Z,102066.16
2023-05-01T23:51:02.969Z,102057.16
2023-05-01T23:53:29.995Z,102060.75
2023-05-01T23:55:56.407Z,102061.47
2023-05-01T23:58:23.467Z,102073.84
